Time;durP1;ratioP1;P1;durP2;ratioP2;P2;SDS_P1;SDS_P2;PMS_P1;PMS_P2;Temp;Humidity;BMP_temperature;BMP_pressure;BME280_temperature;BME280_humidity;BME280_pressure;Samples;Min_cycle;Max_cycle;Signal;HPM_P1;HPM_P2
2021/09/05 00:00:53;;;;;;;34.22;18.20;;;;;;;;;;5107262;28;20020;-71
2021/09/05 00:03:18;;;;;;;32.13;17.92;;;;;;;;;;5097799;28;20543;-71
2021/09/05 00:05:43;;;;;;;27.80;15.93;;;;;;;;;;5107495;28;20072;-71
2021/09/05 00:08:08;;;;;;;31.92;17.48;;;;;;;;;;5109292;28;20258;-71
2021/09/05 00:10:33;;;;;;;28.97;16.60;;;;;;;;;;5111816;28;20095;-71
2021/09/05 00:12:59;;;;;;;29.25;15.68;;;;;;;;;;5092134;28;20265;-71
2021/09/05 00:15:24;;;;;;;30.20;15.87;;;;;;;;;;5111484;28;20026;-70
2021/09/05 00:17:49;;;;;;;33.57;17.17;;;;;;;;;;5111573;28;20624;-71
2021/09/05 00:20:14;;;;;;;29.20;15.53;;;;;;;;;;5111649;28;20265;-71
2021/09/05 00:22:39;;;;;;;33.13;16.43;;;;;;;;;;5109964;28;20284;-70
2021/09/05 00:25:05;;;;;;;30.57;15.13;;;;;;;;;;5101039;28;20281;-71
2021/09/05 00:27:30;;;;;;;27.77;15.98;;;;;;;;;;5111294;28;20285;-70
2021/09/05 00:29:55;;;;;;;27.13;14.23;;;;;;;;;;5103050;28;20016;-70
2021/09/05 00:32:21;;;;;;;29.57;15.43;;;;;;;;;;5109818;28;20024;-70
2021/09/05 00:34:46;;;;;;;25.77;15.17;;;;;;;;;;5098427;28;20266;-70
2021/09/05 00:37:11;;;;;;;30.27;16.10;;;;;;;;;;5109100;28;20253;-71
2021/09/05 00:39:36;;;;;;;25.00;15.17;;;;;;;;;;5091151;28;20262;-71
2021/09/05 00:42:01;;;;;;;30.03;14.83;;;;;;;;;;5097640;28;20360;-70
2021/09/05 00:44:26;;;;;;;27.38;14.90;;;;;;;;;;5105264;28;20265;-70
2021/09/05 00:46:52;;;;;;;26.83;14.60;;;;;;;;;;5108176;28;20118;-70
2021/09/05 00:49:17;;;;;;;27.60;14.70;;;;;;;;;;5106282;28;20797;-70
2021/09/05 00:51:43;;;;;;;26.30;14.30;;;;;;;;;;5109793;28;20250;-70
2021/09/05 00:54:09;;;;;;;35.13;15.45;;;;;;;;;;5111107;28;20080;-71
2021/09/05 00:56:36;;;;;;;26.98;14.52;;;;;;;;;;5092733;28;20112;-71
2021/09/05 00:59:05;;;;;;;28.77;14.43;;;;;;;;;;5090799;28;20027;-71
2021/09/05 01:01:30;;;;;;;26.20;14.23;;;;;;;;;;5103905;28;20015;-71
2021/09/05 01:03:55;;;;;;;27.10;14.45;;;;;;;;;;5100774;28;20023;-71
2021/09/05 01:06:20;;;;;;;30.13;14.68;;;;;;;;;;5110723;28;20015;-71
2021/09/05 01:08:48;;;;;;;28.02;14.75;;;;;;;;;;5110887;28;20016;-71
2021/09/05 01:11:13;;;;;;;26.42;14.43;;;;;;;;;;5111012;28;20026;-71
2021/09/05 01:13:38;;;;;;;30.30;15.15;;;;;;;;;;5110793;28;20031;-71
2021/09/05 01:16:03;;;;;;;26.98;13.93;;;;;;;;;;5110950;28;20043;-71
2021/09/05 01:18:29;;;;;;;25.33;14.20;;;;;;;;;;5106747;28;20374;-71
2021/09/05 01:20:54;;;;;;;26.58;14.15;;;;;;;;;;5099317;28;20020;-71
2021/09/05 01:23:19;;;;;;;32.00;13.43;;;;;;;;;;5100823;28;20023;-71
2021/09/05 01:25:44;;;;;;;23.13;12.50;;;;;;;;;;5104545;28;20951;-71
2021/09/05 01:28:10;;;;;;;23.00;12.98;;;;;;;;;;5110682;28;20311;-71
2021/09/05 01:30:35;;;;;;;27.73;14.70;;;;;;;;;;5097694;28;20374;-71
2021/09/05 01:33:01;;;;;;;31.95;12.88;;;;;;;;;;5105094;28;20462;-71
2021/09/05 01:35:26;;;;;;;26.63;14.20;;;;;;;;;;5107296;28;20031;-71
2021/09/05 01:37:51;;;;;;;27.77;13.33;;;;;;;;;;5103841;28;20039;-71
2021/09/05 01:40:16;;;;;;;28.03;13.33;;;;;;;;;;5095214;28;20274;-71
2021/09/05 01:42:42;;;;;;;32.93;14.03;;;;;;;;;;5098252;28;20875;-71
2021/09/05 01:45:07;;;;;;;25.30;14.63;;;;;;;;;;5105526;28;20261;-71
2021/09/05 01:47:32;;;;;;;35.72;14.93;;;;;;;;;;5110030;28;20318;-71
2021/09/05 01:49:57;;;;;;;25.48;13.93;;;;;;;;;;5108523;28;20486;-71
2021/09/05 01:52:23;;;;;;;25.37;14.73;;;;;;;;;;5105901;28;20069;-71
2021/09/05 01:54:48;;;;;;;23.10;13.50;;;;;;;;;;5107964;28;20254;-71
2021/09/05 01:57:13;;;;;;;22.75;13.75;;;;;;;;;;5108144;28;20322;-71
2021/09/05 01:59:38;;;;;;;23.25;13.70;;;;;;;;;;5095369;28;20030;-71
2021/09/05 02:02:04;;;;;;;28.80;14.50;;;;;;;;;;5108918;28;20019;-71
2021/09/05 02:04:29;;;;;;;28.13;14.23;;;;;;;;;;5111798;28;20390;-71
2021/09/05 02:06:54;;;;;;;25.23;13.77;;;;;;;;;;5112286;28;20020;-71
2021/09/05 02:09:19;;;;;;;24.53;13.77;;;;;;;;;;5109235;28;20441;-71
2021/09/05 02:11:44;;;;;;;28.07;14.60;;;;;;;;;;5112598;28;20295;-71
2021/09/05 02:14:10;;;;;;;21.50;12.73;;;;;;;;;;5112827;28;20269;-71
2021/09/05 02:16:35;;;;;;;25.35;14.32;;;;;;;;;;5110046;28;20747;-71
2021/09/05 02:19:01;;;;;;;25.80;14.10;;;;;;;;;;5112039;28;20708;-71
2021/09/05 02:21:26;;;;;;;26.08;13.27;;;;;;;;;;5113482;28;20671;-71
2021/09/05 02:23:51;;;;;;;27.35;13.55;;;;;;;;;;5110316;28;20027;-71
2021/09/05 02:26:17;;;;;;;26.03;13.00;;;;;;;;;;5094589;28;20047;-71
2021/09/05 02:28:42;;;;;;;33.78;14.98;;;;;;;;;;5107779;28;20257;-71
2021/09/05 02:31:07;;;;;;;26.90;14.40;;;;;;;;;;5105942;28;20089;-71
2021/09/05 02:33:32;;;;;;;29.77;14.00;;;;;;;;;;5104789;28;20802;-71
2021/09/05 02:35:57;;;;;;;22.83;13.70;;;;;;;;;;5113637;28;20343;-71
2021/09/05 02:38:23;;;;;;;28.83;14.43;;;;;;;;;;5108354;28;20030;-71
2021/09/05 02:40:48;;;;;;;24.33;14.02;;;;;;;;;;5113228;28;20612;-71
2021/09/05 02:43:13;;;;;;;31.33;14.48;;;;;;;;;;5112781;28;20023;-71
2021/09/05 02:45:38;;;;;;;28.95;14.25;;;;;;;;;;5113735;28;20103;-71
2021/09/05 02:48:04;;;;;;;22.03;12.20;;;;;;;;;;5106722;28;20031;-71
2021/09/05 02:50:30;;;;;;;23.33;12.93;;;;;;;;;;5111780;28;20257;-71
2021/09/05 02:52:55;;;;;;;22.33;12.73;;;;;;;;;;5111069;28;20023;-71
2021/09/05 02:55:20;;;;;;;26.38;13.73;;;;;;;;;;5111478;28;20385;-71
2021/09/05 02:57:45;;;;;;;25.20;13.63;;;;;;;;;;5112188;28;20012;-71
2021/09/05 03:00:11;;;;;;;23.43;12.97;;;;;;;;;;5112563;28;20624;-71
2021/09/05 03:02:37;;;;;;;30.65;12.98;;;;;;;;;;5093399;28;20327;-71
2021/09/05 03:05:02;;;;;;;23.27;13.50;;;;;;;;;;5108563;28;20065;-71
2021/09/05 03:07:27;;;;;;;25.48;13.27;;;;;;;;;;5111189;28;20019;-71
2021/09/05 03:09:52;;;;;;;23.00;12.43;;;;;;;;;;5112489;28;20564;-71
2021/09/05 03:12:18;;;;;;;21.97;12.87;;;;;;;;;;5112277;28;20268;-71
2021/09/05 03:14:43;;;;;;;25.27;12.77;;;;;;;;;;5103083;28;20616;-71
2021/09/05 03:17:08;;;;;;;21.33;12.40;;;;;;;;;;5110346;28;20035;-71
2021/09/05 03:19:33;;;;;;;27.83;13.60;;;;;;;;;;5111330;28;20681;-71
2021/09/05 03:21:58;;;;;;;22.17;12.30;;;;;;;;;;5108730;28;20027;-71
2021/09/05 03:24:24;;;;;;;23.77;12.98;;;;;;;;;;5106558;28;20424;-71
2021/09/05 03:26:49;;;;;;;28.75;13.05;;;;;;;;;;5112031;28;20049;-71
2021/09/05 03:29:14;;;;;;;21.02;12.57;;;;;;;;;;5105769;28;20031;-71
2021/09/05 03:31:39;;;;;;;24.00;13.53;;;;;;;;;;5112212;28;20030;-71
2021/09/05 03:34:04;;;;;;;19.77;11.97;;;;;;;;;;5110557;28;20767;-71
2021/09/05 03:36:30;;;;;;;25.10;13.90;;;;;;;;;;5084995;28;20274;-71
2021/09/05 03:38:55;;;;;;;32.88;14.07;;;;;;;;;;5107358;28;20265;-71
2021/09/05 03:41:20;;;;;;;26.05;13.30;;;;;;;;;;5111301;28;20094;-71
2021/09/05 03:43:45;;;;;;;24.13;12.93;;;;;;;;;;5107233;28;20069;-71
2021/09/05 03:46:10;;;;;;;24.67;13.80;;;;;;;;;;5106820;28;20050;-71
2021/09/05 03:48:36;;;;;;;23.95;13.20;;;;;;;;;;5109575;28;20102;-71
2021/09/05 03:51:01;;;;;;;24.05;13.20;;;;;;;;;;5093016;28;20114;-71
2021/09/05 03:53:26;;;;;;;29.33;15.50;;;;;;;;;;5108012;28;20035;-71
2021/09/05 03:55:52;;;;;;;28.92;13.90;;;;;;;;;;5110139;28;20277;-71
2021/09/05 03:58:17;;;;;;;25.98;13.20;;;;;;;;;;5108889;28;20525;-70
2021/09/05 04:00:42;;;;;;;29.05;13.57;;;;;;;;;;5092764;28;20441;-70
2021/09/05 04:03:07;;;;;;;30.55;13.95;;;;;;;;;;5100716;28;20019;-70
2021/09/05 04:05:33;;;;;;;27.17;12.60;;;;;;;;;;5111794;28;20024;-71
2021/09/05 04:10:33;;;;;;;21.02;12.43;;;;;;;;;;5104078;28;20069;-70
2021/09/05 04:12:59;;;;;;;25.00;12.85;;;;;;;;;;5107849;28;20020;-70
2021/09/05 04:15:24;;;;;;;24.58;12.70;;;;;;;;;;5110597;28;20031;-71
2021/09/05 04:17:49;;;;;;;29.75;12.60;;;;;;;;;;5108720;28;20019;-70
2021/09/05 04:20:15;;;;;;;23.05;12.75;;;;;;;;;;5097433;28;20039;-70
2021/09/05 04:22:40;;;;;;;31.42;13.27;;;;;;;;;;5109642;28;20048;-70
2021/09/05 04:25:06;;;;;;;22.00;12.90;;;;;;;;;;5102649;28;20083;-70
2021/09/05 04:27:31;;;;;;;24.40;13.45;;;;;;;;;;5094721;28;20986;-70
2021/09/05 04:29:56;;;;;;;28.40;12.43;;;;;;;;;;5106786;28;20028;-71
2021/09/05 04:32:21;;;;;;;18.77;11.77;;;;;;;;;;5091782;28;20039;-71
2021/09/05 04:34:47;;;;;;;23.93;11.30;;;;;;;;;;5110950;28;20035;-70
2021/09/05 04:37:12;;;;;;;24.80;12.38;;;;;;;;;;5110602;28;20265;-70
2021/09/05 04:39:38;;;;;;;25.47;12.80;;;;;;;;;;5109566;28;20020;-70
2021/09/05 04:42:03;;;;;;;22.30;12.57;;;;;;;;;;5105480;28;20756;-70
2021/09/05 04:44:28;;;;;;;26.25;13.73;;;;;;;;;;5104154;28;20270;-70
2021/09/05 04:46:53;;;;;;;30.80;13.85;;;;;;;;;;5110513;28;20083;-70
2021/09/05 04:49:19;;;;;;;25.83;12.93;;;;;;;;;;5110034;28;20047;-71
2021/09/05 04:51:44;;;;;;;29.58;12.93;;;;;;;;;;5109479;28;20024;-71
2021/09/05 04:54:09;;;;;;;25.27;14.00;;;;;;;;;;5108411;28;20045;-70
2021/09/05 04:56:34;;;;;;;23.50;14.23;;;;;;;;;;5109190;28;20024;-71
2021/09/05 04:58:59;;;;;;;28.08;13.77;;;;;;;;;;5109734;28;20019;-70
2021/09/05 05:01:25;;;;;;;23.63;14.65;;;;;;;;;;5101264;28;20099;-70
2021/09/05 05:03:50;;;;;;;22.73;12.40;;;;;;;;;;5109965;28;20019;-70
2021/09/05 05:06:15;;;;;;;22.53;12.47;;;;;;;;;;5105081;28;20265;-70
2021/09/05 05:08:40;;;;;;;21.13;12.93;;;;;;;;;;5109715;28;20786;-70
2021/09/05 05:11:05;;;;;;;23.35;12.02;;;;;;;;;;5108822;28;20627;-70
2021/09/05 05:13:31;;;;;;;25.07;13.43;;;;;;;;;;5100151;28;20028;-70
2021/09/05 05:15:56;;;;;;;25.60;12.73;;;;;;;;;;5109547;28;20275;-71
2021/09/05 05:18:22;;;;;;;25.67;12.93;;;;;;;;;;5110433;28;20352;-71
2021/09/05 05:20:47;;;;;;;26.58;14.45;;;;;;;;;;5109604;28;20501;-71
2021/09/05 05:23:12;;;;;;;26.75;13.70;;;;;;;;;;5108479;28;20030;-70
2021/09/05 05:25:37;;;;;;;23.37;13.17;;;;;;;;;;5106250;28;20012;-70
2021/09/05 05:28:03;;;;;;;29.63;13.38;;;;;;;;;;5110092;28;20356;-70
2021/09/05 05:30:28;;;;;;;22.42;13.05;;;;;;;;;;5096586;28;20506;-70
2021/09/05 05:32:53;;;;;;;23.53;12.87;;;;;;;;;;5107567;28;20510;-70
2021/09/05 05:35:18;;;;;;;30.70;13.80;;;;;;;;;;5106977;28;20278;-70
2021/09/05 05:37:43;;;;;;;25.33;13.40;;;;;;;;;;5109592;28;20262;-70
2021/09/05 05:40:09;;;;;;;23.00;12.70;;;;;;;;;;5113278;28;20430;-70
2021/09/05 05:42:34;;;;;;;25.45;13.57;;;;;;;;;;5110790;28;20288;-70
2021/09/05 05:44:59;;;;;;;24.90;12.90;;;;;;;;;;5107610;28;20011;-70
2021/09/05 05:47:27;;;;;;;21.57;12.73;;;;;;;;;;5087320;28;20024;-70
2021/09/05 05:49:52;;;;;;;25.58;13.50;;;;;;;;;;5103644;28;20818;-70
2021/09/05 05:52:17;;;;;;;26.67;14.32;;;;;;;;;;5113078;28;20099;-71
2021/09/05 05:54:42;;;;;;;26.23;12.60;;;;;;;;;;5112429;28;20020;-70
2021/09/05 05:57:07;;;;;;;24.03;12.47;;;;;;;;;;5109127;28;20780;-71
2021/09/05 05:59:33;;;;;;;29.63;14.45;;;;;;;;;;5113911;28;20296;-70
2021/09/05 06:01:59;;;;;;;22.83;12.75;;;;;;;;;;5110300;28;20096;-70
2021/09/05 06:04:24;;;;;;;23.08;13.02;;;;;;;;;;5109726;28;20012;-70
2021/09/05 06:06:51;;;;;;;27.50;13.25;;;;;;;;;;5103714;28;20087;-70
2021/09/05 06:09:16;;;;;;;32.90;15.07;;;;;;;;;;5108630;28;20043;-70
2021/09/05 06:11:41;;;;;;;24.73;13.43;;;;;;;;;;5112896;28;20050;-70
2021/09/05 06:14:06;;;;;;;22.80;12.87;;;;;;;;;;5100953;28;20153;-71
2021/09/05 06:16:32;;;;;;;23.97;12.30;;;;;;;;;;5110921;28;20731;-70
2021/09/05 06:18:57;;;;;;;22.70;12.82;;;;;;;;;;5111883;28;20305;-70
2021/09/05 06:21:22;;;;;;;27.57;13.23;;;;;;;;;;5104420;28;20088;-71
2021/09/05 06:23:47;;;;;;;26.70;13.50;;;;;;;;;;5108648;28;20285;-70
2021/09/05 06:26:12;;;;;;;27.35;13.93;;;;;;;;;;5102567;28;20266;-70
2021/09/05 06:28:38;;;;;;;20.63;12.35;;;;;;;;;;5110521;28;20415;-70
2021/09/05 06:31:03;;;;;;;23.70;13.68;;;;;;;;;;5113955;28;20016;-70
2021/09/05 06:33:28;;;;;;;25.38;12.68;;;;;;;;;;5112302;28;20031;-70
2021/09/05 06:35:53;;;;;;;22.17;12.53;;;;;;;;;;5112469;28;20035;-73
2021/09/05 06:38:19;;;;;;;23.10;13.02;;;;;;;;;;5112726;28;20261;-71
2021/09/05 06:40:44;;;;;;;29.92;14.32;;;;;;;;;;5110993;28;20081;-71
2021/09/05 06:43:09;;;;;;;21.13;13.07;;;;;;;;;;5107015;28;20102;-71
2021/09/05 06:45:34;;;;;;;27.57;12.57;;;;;;;;;;5104118;28;20809;-71
2021/09/05 06:47:59;;;;;;;23.27;12.90;;;;;;;;;;5109190;28;20269;-71
2021/09/05 06:50:24;;;;;;;22.63;12.60;;;;;;;;;;5112735;28;20300;-71
2021/09/05 06:52:50;;;;;;;19.20;11.55;;;;;;;;;;5107365;28;20593;-72
2021/09/05 06:55:15;;;;;;;26.10;13.00;;;;;;;;;;5093770;28;20034;-73
2021/09/05 06:57:40;;;;;;;20.17;12.65;;;;;;;;;;5111663;28;20269;-71
2021/09/05 07:00:06;;;;;;;23.20;13.00;;;;;;;;;;5112186;28;20024;-71
2021/09/05 07:02:31;;;;;;;20.80;12.43;;;;;;;;;;5111351;28;20322;-71
2021/09/05 07:04:56;;;;;;;18.15;12.38;;;;;;;;;;5111123;28;20016;-71
2021/09/05 07:07:21;;;;;;;20.17;11.40;;;;;;;;;;5100855;28;20022;-72
2021/09/05 07:09:47;;;;;;;24.17;12.53;;;;;;;;;;5097787;28;20378;-71
2021/09/05 07:12:12;;;;;;;17.87;11.77;;;;;;;;;;5106311;28;20084;-72
2021/09/05 07:14:37;;;;;;;21.97;12.90;;;;;;;;;;5109496;28;20276;-72
2021/09/05 07:17:02;;;;;;;19.23;12.45;;;;;;;;;;5111949;28;20267;-71
2021/09/05 07:19:27;;;;;;;20.52;11.38;;;;;;;;;;5110934;28;20032;-72
2021/09/05 07:21:53;;;;;;;18.50;11.83;;;;;;;;;;5097196;28;20106;-72
2021/09/05 07:24:18;;;;;;;21.60;12.73;;;;;;;;;;5101748;28;20023;-72
2021/09/05 07:26:43;;;;;;;19.33;13.30;;;;;;;;;;5111941;28;20015;-72
2021/09/05 07:29:08;;;;;;;23.70;13.68;;;;;;;;;;5101379;28;20024;-72
2021/09/05 07:31:33;;;;;;;19.67;12.03;;;;;;;;;;5105438;28;20023;-72
2021/09/05 07:33:59;;;;;;;18.20;11.90;;;;;;;;;;5110514;28;20516;-71
2021/09/05 07:36:24;;;;;;;16.50;12.13;;;;;;;;;;5105151;28;20039;-73
2021/09/05 07:38:49;;;;;;;18.53;12.90;;;;;;;;;;5110142;28;20019;-72
2021/09/05 07:41:14;;;;;;;20.63;12.73;;;;;;;;;;5092269;28;20080;-72
2021/09/05 07:43:40;;;;;;;18.03;11.57;;;;;;;;;;5094287;28;20584;-72
2021/09/05 07:46:05;;;;;;;16.15;11.90;;;;;;;;;;5108848;28;20755;-72
2021/09/05 07:48:31;;;;;;;15.70;11.25;;;;;;;;;;5110040;28;20031;-72
2021/09/05 07:50:56;;;;;;;24.33;11.10;;;;;;;;;;5110365;28;20589;-72
2021/09/05 07:53:21;;;;;;;16.43;10.70;;;;;;;;;;5110414;28;20024;-72
2021/09/05 07:55:46;;;;;;;18.13;11.52;;;;;;;;;;5111378;28;20047;-73
2021/09/05 07:58:11;;;;;;;17.43;12.20;;;;;;;;;;5110649;28;20020;-72
2021/09/05 08:00:37;;;;;;;16.37;10.93;;;;;;;;;;5110461;28;20496;-73
2021/09/05 08:03:02;;;;;;;20.13;11.57;;;;;;;;;;5107403;28;20024;-73
2021/09/05 08:05:27;;;;;;;27.47;11.70;;;;;;;;;;5109274;28;20027;-73
2021/09/05 08:07:52;;;;;;;23.83;11.27;;;;;;;;;;5100373;28;20342;-73
2021/09/05 08:10:17;;;;;;;17.87;12.27;;;;;;;;;;5106522;28;20034;-72
2021/09/05 08:12:43;;;;;;;19.27;11.83;;;;;;;;;;5100265;28;20266;-72
2021/09/05 08:15:08;;;;;;;17.57;11.60;;;;;;;;;;5103895;28;20635;-73
2021/09/05 08:17:33;;;;;;;17.58;12.13;;;;;;;;;;5094522;28;20470;-72
2021/09/05 08:19:58;;;;;;;17.07;11.70;;;;;;;;;;5093232;28;20027;-73
2021/09/05 08:22:23;;;;;;;18.33;13.23;;;;;;;;;;5108109;28;20148;-74
2021/09/05 08:24:49;;;;;;;17.63;11.33;;;;;;;;;;5101643;28;20106;-72
2021/09/05 08:27:14;;;;;;;19.17;11.87;;;;;;;;;;5108833;28;20011;-73
2021/09/05 08:29:39;;;;;;;18.70;11.67;;;;;;;;;;5095959;28;20024;-72
2021/09/05 08:32:04;;;;;;;17.08;11.90;;;;;;;;;;5108056;28;20023;-73
2021/09/05 08:34:33;;;;;;;17.38;11.68;;;;;;;;;;5107714;28;20073;-72
2021/09/05 08:36:59;;;;;;;17.75;11.73;;;;;;;;;;5104658;28;20034;-73
2021/09/05 08:39:26;;;;;;;18.83;12.00;;;;;;;;;;5107931;28;20016;-72
2021/09/05 08:41:53;;;;;;;16.08;9.77;;;;;;;;;;5107977;28;20007;-73
2021/09/05 08:44:18;;;;;;;18.50;11.65;;;;;;;;;;5092335;28;20020;-72
2021/09/05 08:46:43;;;;;;;18.27;12.27;;;;;;;;;;5088396;28;20028;-72
2021/09/05 08:49:08;;;;;;;17.97;12.00;;;;;;;;;;5105705;28;20032;-71
2021/09/05 08:51:34;;;;;;;20.17;12.17;;;;;;;;;;5109257;28;20012;-72
2021/09/05 08:53:59;;;;;;;16.60;11.88;;;;;;;;;;5106869;28;20497;-72
2021/09/05 08:56:24;;;;;;;18.33;11.55;;;;;;;;;;5104516;28;20513;-72
2021/09/05 08:58:49;;;;;;;19.05;13.48;;;;;;;;;;5109826;28;20016;-72
2021/09/05 09:01:16;;;;;;;21.83;12.30;;;;;;;;;;5084096;28;20402;-72
2021/09/05 09:03:41;;;;;;;16.05;10.80;;;;;;;;;;5097732;28;20031;-72
2021/09/05 09:06:06;;;;;;;20.17;10.80;;;;;;;;;;5093624;28;20020;-71
2021/09/05 09:08:31;;;;;;;19.20;11.60;;;;;;;;;;5107243;28;20431;-72
2021/09/05 09:10:58;;;;;;;18.10;12.03;;;;;;;;;;5106333;28;20666;-72
2021/09/05 09:13:23;;;;;;;18.65;11.85;;;;;;;;;;5099596;28;20359;-74
2021/09/05 09:15:48;;;;;;;18.63;11.83;;;;;;;;;;5094929;28;20093;-74
2021/09/05 09:18:14;;;;;;;19.93;11.17;;;;;;;;;;5098344;28;20051;-73
2021/09/05 09:20:40;;;;;;;19.43;12.03;;;;;;;;;;5090424;28;20333;-73
2021/09/05 09:23:10;;;;;;;19.67;11.07;;;;;;;;;;5106240;28;20087;-74
2021/09/05 09:25:35;;;;;;;;;;;;;;;;;;5109083;28;20501;-74
2021/09/05 09:28:01;;;;;;;19.90;11.57;;;;;;;;;;5079960;28;19908;-72
2021/09/05 09:30:35;;;;;;;21.58;12.75;;;;;;;;;;5111464;28;20016;-74
2021/09/05 09:33:01;;;;;;;19.25;11.73;;;;;;;;;;5111256;28;20087;-72
2021/09/05 09:35:45;;;;;;;17.48;11.50;;;;;;;;;;5110107;28;20107;-72
2021/09/05 09:38:13;;;;;;;18.77;11.10;;;;;;;;;;5092221;28;20023;-72
2021/09/05 09:40:38;;;;;;;20.02;11.68;;;;;;;;;;5091622;28;20061;-72
2021/09/05 09:43:14;;;;;;;18.20;11.20;;;;;;;;;;5106508;28;20020;-72
2021/09/05 09:45:39;;;;;;;35.13;12.68;;;;;;;;;;5110891;28;20007;-72
2021/09/05 09:48:06;;;;;;;17.80;12.05;;;;;;;;;;5098643;28;20546;-73
2021/09/05 09:50:32;;;;;;;17.25;11.32;;;;;;;;;;5098903;28;20015;-72
2021/09/05 09:52:57;;;;;;;18.33;12.02;;;;;;;;;;5065866;28;20054;-72
2021/09/05 09:55:22;;;;;;;16.07;11.27;;;;;;;;;;5075187;28;20387;-72
2021/09/05 09:57:48;;;;;;;23.77;11.88;;;;;;;;;;5083645;28;20271;-72
2021/09/05 10:00:14;;;;;;;20.40;12.63;;;;;;;;;;5063830;28;20115;-72
2021/09/05 10:02:41;;;;;;;20.52;11.88;;;;;;;;;;5084746;28;20024;-72
2021/09/05 10:05:07;;;;;;;17.95;11.15;;;;;;;;;;5086719;28;20023;-72
2021/09/05 10:07:32;;;;;;;19.55;11.80;;;;;;;;;;5088903;28;20027;-72
2021/09/05 10:09:59;;;;;;;21.10;12.80;;;;;;;;;;5086903;28;20073;-72
2021/09/05 10:12:24;;;;;;;16.33;11.38;;;;;;;;;;5062575;28;20020;-71
2021/09/05 10:14:52;;;;;;;20.45;11.80;;;;;;;;;;5082528;28;20027;-72
2021/09/05 10:17:18;;;;;;;16.25;9.68;;;;;;;;;;5073302;28;20490;-72
2021/09/05 10:19:44;;;;;;;17.75;11.35;;;;;;;;;;5085231;28;20016;-72
2021/09/05 10:22:09;;;;;;;21.00;10.50;;;;;;;;;;5087264;28;20020;-71
2021/09/05 10:24:41;;;;;;;16.98;10.68;;;;;;;;;;5076580;28;20040;-72
2021/09/05 10:27:07;;;;;;;16.65;11.10;;;;;;;;;;5086887;28;20099;-72
2021/09/05 10:29:32;;;;;;;20.83;10.50;;;;;;;;;;5082295;28;20434;-72
2021/09/05 10:34:32;;;;;;;18.90;11.43;;;;;;;;;;5069880;28;20060;-69
2021/09/05 10:37:09;;;;;;;16.30;11.13;;;;;;;;;;5065372;28;20052;-69
2021/09/05 10:39:34;;;;;;;18.08;11.43;;;;;;;;;;5067450;28;20044;-69
2021/09/05 10:41:59;;;;;;;15.30;10.07;;;;;;;;;;5065684;28;20496;-68
2021/09/05 10:44:24;;;;;;;14.70;10.27;;;;;;;;;;5052763;28;20045;-69
2021/09/05 10:46:52;;;;;;;16.87;8.93;;;;;;;;;;5085845;23;20341;-70
2021/09/05 10:49:38;;;;;;;21.33;10.98;;;;;;;;;;5107727;27;20026;-70
2021/09/05 10:52:03;;;;;;;19.10;9.75;;;;;;;;;;5101404;28;20034;-70
2021/09/05 10:54:28;;;;;;;16.02;10.63;;;;;;;;;;5098924;28;20012;-70
2021/09/05 10:56:55;;;;;;;14.00;9.97;;;;;;;;;;5096401;27;20036;-70
2021/09/05 10:59:24;;;;;;;18.00;10.75;;;;;;;;;;5088086;28;20594;-70
2021/09/05 11:01:49;;;;;;;17.47;10.73;;;;;;;;;;5091807;28;20470;-70
2021/09/05 11:04:14;;;;;;;18.85;10.65;;;;;;;;;;5092659;28;20039;-70
2021/09/05 11:06:44;;;;;;;16.08;11.00;;;;;;;;;;5092631;28;20043;-70
2021/09/05 11:11:57;;;;;;;18.38;10.77;;;;;;;;;;5092241;28;20674;-70
2021/09/05 11:14:34;;;;;;;15.27;10.60;;;;;;;;;;5092388;28;20020;-70
2021/09/05 11:17:00;;;;;;;20.27;10.48;;;;;;;;;;5092439;28;20012;-70
2021/09/05 11:19:25;;;;;;;15.60;9.90;;;;;;;;;;5092376;28;20047;-70
2021/09/05 11:21:50;;;;;;;28.97;11.33;;;;;;;;;;5092379;28;20016;-70
2021/09/05 11:24:15;;;;;;;14.53;9.87;;;;;;;;;;5091697;28;20285;-70
2021/09/05 11:26:57;;;;;;;15.70;10.50;;;;;;;;;;5089082;28;20298;-70
2021/09/05 11:29:23;;;;;;;15.73;10.77;;;;;;;;;;5072497;28;20337;-70
2021/09/05 11:31:48;;;;;;;17.73;9.93;;;;;;;;;;5087267;28;20016;-70
2021/09/05 11:34:13;;;;;;;19.87;9.73;;;;;;;;;;5088927;28;20440;-70
2021/09/05 11:36:41;;;;;;;17.30;9.47;;;;;;;;;;5084663;28;20024;-70
2021/09/05 11:39:07;;;;;;;15.20;9.15;;;;;;;;;;5071847;28;20027;-70
2021/09/05 11:41:32;;;;;;;16.50;9.30;;;;;;;;;;5073508;28;20024;-70
2021/09/05 11:43:57;;;;;;;17.53;10.77;;;;;;;;;;5091770;28;20277;-70
2021/09/05 11:46:22;;;;;;;20.47;9.67;;;;;;;;;;5079463;28;20454;-70
2021/09/05 11:48:54;;;;;;;19.27;9.23;;;;;;;;;;5071760;28;20028;-70
2021/09/05 11:51:19;;;;;;;12.73;9.30;;;;;;;;;;5083753;28;20273;-70
2021/09/05 11:53:54;;;;;;;20.43;9.27;;;;;;;;;;5095378;28;20377;-70
2021/09/05 11:56:19;;;;;;;15.80;9.82;;;;;;;;;;5093347;28;20313;-70
2021/09/05 11:58:45;;;;;;;14.73;9.20;;;;;;;;;;5091768;28;20497;-70
2021/09/05 12:01:11;;;;;;;13.77;9.45;;;;;;;;;;5091879;28;20254;-70
2021/09/05 12:03:37;;;;;;;15.57;9.32;;;;;;;;;;5091216;28;20016;-70
2021/09/05 12:06:02;;;;;;;14.32;8.73;;;;;;;;;;5091752;28;20099;-70
2021/09/05 12:08:27;;;;;;;13.60;8.15;;;;;;;;;;5091551;28;20012;-70
2021/09/05 12:11:00;;;;;;;14.43;9.02;;;;;;;;;;5091239;28;20049;-70
2021/09/05 12:13:25;;;;;;;11.77;7.93;;;;;;;;;;5090859;28;20503;-70
2021/09/05 12:15:50;;;;;;;12.73;8.33;;;;;;;;;;5091228;28;20028;-70
2021/09/05 12:18:25;;;;;;;14.07;8.97;;;;;;;;;;5091452;28;20250;-70
2021/09/05 12:20:57;;;;;;;16.65;8.85;;;;;;;;;;5091335;28;20030;-70
2021/09/05 12:23:24;;;;;;;12.52;8.40;;;;;;;;;;5091203;28;20024;-70
2021/09/05 12:25:49;;;;;;;12.13;8.85;;;;;;;;;;5090063;28;20056;-70
2021/09/05 12:28:19;;;;;;;14.90;8.57;;;;;;;;;;5082623;28;20488;-70
2021/09/05 12:30:44;;;;;;;;;;;;;;;;;;5091113;28;20073;-70
2021/09/05 12:33:10;;;;;;;12.70;8.50;;;;;;;;;;5108605;28;19907;-70
2021/09/05 12:35:36;;;;;;;11.60;8.30;;;;;;;;;;5111427;28;20028;-70
2021/09/05 12:38:05;;;;;;;18.10;9.15;;;;;;;;;;5111365;28;20034;-70
2021/09/05 12:40:35;;;;;;;13.15;8.85;;;;;;;;;;5101721;28;20024;-70
2021/09/05 12:43:00;;;;;;;15.80;9.10;;;;;;;;;;5089691;28;20061;-70
2021/09/05 12:45:25;;;;;;;17.50;8.67;;;;;;;;;;5086998;28;20054;-70
2021/09/05 12:47:50;;;;;;;11.33;8.13;;;;;;;;;;5088399;28;20266;-70
2021/09/05 12:50:20;;;;;;;15.47;8.27;;;;;;;;;;5081270;28;20258;-70
2021/09/05 12:52:46;;;;;;;12.23;8.15;;;;;;;;;;5090084;28;20024;-70
2021/09/05 12:55:11;;;;;;;14.13;8.13;;;;;;;;;;5090516;28;20079;-70
2021/09/05 12:57:36;;;;;;;10.43;8.07;;;;;;;;;;5090696;28;20105;-70
2021/09/05 13:00:02;;;;;;;9.77;7.13;;;;;;;;;;5095218;28;20358;-70
2021/09/05 13:02:27;;;;;;;13.35;8.00;;;;;;;;;;5110732;28;20281;-70
2021/09/05 13:04:53;;;;;;;13.25;8.25;;;;;;;;;;5110692;28;20445;-70
2021/09/05 13:07:18;;;;;;;10.27;7.45;;;;;;;;;;5111036;28;20016;-70
2021/09/05 13:09:43;;;;;;;13.90;7.67;;;;;;;;;;5108402;28;20040;-70
2021/09/05 13:12:09;;;;;;;12.83;8.00;;;;;;;;;;5089820;28;20024;-70
2021/09/05 13:14:36;;;;;;;10.52;7.13;;;;;;;;;;5104295;28;20261;-70
2021/09/05 13:17:02;;;;;;;11.88;7.85;;;;;;;;;;5093613;28;20016;-70
2021/09/05 13:19:27;;;;;;;11.77;8.67;;;;;;;;;;5089832;28;20040;-70
2021/09/05 13:21:52;;;;;;;10.47;8.03;;;;;;;;;;5090097;28;20270;-70
2021/09/05 13:24:17;;;;;;;12.20;8.40;;;;;;;;;;5087002;28;20278;-69
2021/09/05 13:26:42;;;;;;;10.53;6.73;;;;;;;;;;5087955;28;20620;-69
2021/09/05 13:29:07;;;;;;;12.60;7.30;;;;;;;;;;5090006;28;20122;-69
2021/09/05 13:31:33;;;;;;;10.27;7.37;;;;;;;;;;5084439;28;20024;-70
2021/09/05 13:33:58;;;;;;;13.23;7.55;;;;;;;;;;5088716;28;20490;-70
2021/09/05 13:36:27;;;;;;;14.27;7.63;;;;;;;;;;5088775;28;20477;-70
2021/09/05 13:38:52;;;;;;;12.32;7.38;;;;;;;;;;5084427;28;20389;-70
2021/09/05 13:41:17;;;;;;;13.18;8.05;;;;;;;;;;5093047;28;20026;-70
2021/09/05 13:43:43;;;;;;;11.13;7.37;;;;;;;;;;5089225;28;20042;-70
2021/09/05 13:46:08;;;;;;;11.88;7.07;;;;;;;;;;5090226;28;20624;-70
2021/09/05 13:48:33;;;;;;;12.00;7.38;;;;;;;;;;5090145;28;20016;-70
2021/09/05 13:50:58;;;;;;;11.70;7.60;;;;;;;;;;5089476;28;20482;-70
2021/09/05 13:53:23;;;;;;;11.27;7.50;;;;;;;;;;5085834;28;20092;-70
2021/09/05 13:55:49;;;;;;;13.17;7.40;;;;;;;;;;5089937;28;20636;-70
2021/09/05 13:58:14;;;;;;;20.93;7.53;;;;;;;;;;5089771;28;20775;-70
2021/09/05 14:00:39;;;;;;;11.40;7.60;;;;;;;;;;5091723;28;20111;-70
2021/09/05 14:03:04;;;;;;;12.93;7.83;;;;;;;;;;5090056;28;20380;-70
2021/09/05 14:05:29;;;;;;;10.27;7.00;;;;;;;;;;5091441;28;20012;-69
2021/09/05 14:07:55;;;;;;;12.13;7.43;;;;;;;;;;5090271;28;20122;-70
2021/09/05 14:10:20;;;;;;;11.73;8.13;;;;;;;;;;5094532;28;20503;-70
2021/09/05 14:12:45;;;;;;;11.68;7.32;;;;;;;;;;5086706;28;20031;-70
2021/09/05 14:15:10;;;;;;;13.87;7.10;;;;;;;;;;5088476;28;20024;-69
2021/09/05 14:17:39;;;;;;;11.68;6.80;;;;;;;;;;5093078;28;20270;-69
2021/09/05 14:20:04;;;;;;;10.30;6.82;;;;;;;;;;5086801;28;20408;-69